sensor_id;sensor_type;location;lat;lon;timestamp;P1;durP1;ratioP1;P2;durP2;ratioP2
71162;SDS011;58858;50.948;6.566;2023-06-22T00:05:55;5.75;;;2.97;;
71162;SDS011;58858;50.948;6.566;2023-06-22T00:15:57;4.93;;;3.17;;
71162;SDS011;58858;50.948;6.566;2023-06-22T00:26:00;6.85;;;3.80;;
71162;SDS011;58858;50.948;6.566;2023-06-22T00:36:02;4.97;;;3.53;;
71162;SDS011;58858;50.948;6.566;2023-06-22T00:46:05;5.13;;;3.67;;
71162;SDS011;58858;50.948;6.566;2023-06-22T00:56:06;11.32;;;4.55;;
71162;SDS011;58858;50.948;6.566;2023-06-22T01:06:12;8.87;;;4.10;;
71162;SDS011;58858;50.948;6.566;2023-06-22T01:16:18;5.80;;;3.85;;
71162;SDS011;58858;50.948;6.566;2023-06-22T01:26:25;6.82;;;3.50;;
71162;SDS011;58858;50.948;6.566;2023-06-22T01:36:35;7.28;;;3.08;;
71162;SDS011;58858;50.948;6.566;2023-06-22T01:46:40;5.03;;;3.30;;
71162;SDS011;58858;50.948;6.566;2023-06-22T01:56:43;7.43;;;3.22;;
71162;SDS011;58858;50.948;6.566;2023-06-22T02:06:45;5.07;;;3.33;;
71162;SDS011;58858;50.948;6.566;2023-06-22T02:16:47;8.43;;;3.03;;
71162;SDS011;58858;50.948;6.566;2023-06-22T02:26:49;12.40;;;3.60;;
71162;SDS011;58858;50.948;6.566;2023-06-22T02:36:50;6.35;;;3.30;;
71162;SDS011;58858;50.948;6.566;2023-06-22T02:46:54;7.03;;;3.37;;
71162;SDS011;58858;50.948;6.566;2023-06-22T02:56:55;9.50;;;5.53;;
71162;SDS011;58858;50.948;6.566;2023-06-22T03:06:57;7.15;;;5.22;;
71162;SDS011;58858;50.948;6.566;2023-06-22T03:17:03;7.93;;;4.90;;
71162;SDS011;58858;50.948;6.566;2023-06-22T03:27:05;8.85;;;5.18;;
71162;SDS011;58858;50.948;6.566;2023-06-22T03:37:08;10.38;;;5.25;;
71162;SDS011;58858;50.948;6.566;2023-06-22T03:47:09;6.65;;;4.47;;
71162;SDS011;58858;50.948;6.566;2023-06-22T03:57:23;6.78;;;4.55;;
71162;SDS011;58858;50.948;6.566;2023-06-22T04:07:24;9.95;;;5.43;;
71162;SDS011;58858;50.948;6.566;2023-06-22T04:17:25;7.32;;;5.32;;
71162;SDS011;58858;50.948;6.566;2023-06-22T04:27:26;9.88;;;5.25;;
71162;SDS011;58858;50.948;6.566;2023-06-22T04:37:27;7.75;;;5.30;;
71162;SDS011;58858;50.948;6.566;2023-06-22T04:47:28;14.52;;;6.53;;
71162;SDS011;58858;50.948;6.566;2023-06-22T04:57:29;9.30;;;4.88;;
71162;SDS011;58858;50.948;6.566;2023-06-22T05:07:34;10.23;;;5.30;;
71162;SDS011;58858;50.948;6.566;2023-06-22T05:17:35;6.40;;;4.40;;
71162;SDS011;58858;50.948;6.566;2023-06-22T05:27:37;10.88;;;6.28;;
71162;SDS011;58858;50.948;6.566;2023-06-22T05:37:41;7.55;;;5.78;;
71162;SDS011;58858;50.948;6.566;2023-06-22T05:47:43;12.23;;;6.05;;
71162;SDS011;58858;50.948;6.566;2023-06-22T05:57:44;9.95;;;5.78;;
71162;SDS011;58858;50.948;6.566;2023-06-22T06:07:45;10.90;;;6.45;;
71162;SDS011;58858;50.948;6.566;2023-06-22T06:17:51;15.02;;;6.88;;
71162;SDS011;58858;50.948;6.566;2023-06-22T06:27:53;12.85;;;7.22;;
71162;SDS011;58858;50.948;6.566;2023-06-22T06:37:55;14.45;;;7.03;;
71162;SDS011;58858;50.948;6.566;2023-06-22T06:47:56;8.45;;;6.10;;
71162;SDS011;58858;50.948;6.566;2023-06-22T06:57:57;8.48;;;6.38;;
71162;SDS011;58858;50.948;6.566;2023-06-22T07:07:58;11.00;;;7.40;;
71162;SDS011;58858;50.948;6.566;2023-06-22T07:18:00;8.30;;;6.15;;
71162;SDS011;58858;50.948;6.566;2023-06-22T07:28:02;15.40;;;8.50;;
71162;SDS011;58858;50.948;6.566;2023-06-22T07:38:04;9.97;;;8.97;;
71162;SDS011;58858;50.948;6.566;2023-06-22T07:48:06;14.15;;;7.85;;
71162;SDS011;58858;50.948;6.566;2023-06-22T07:58:07;12.75;;;9.75;;
71162;SDS011;58858;50.948;6.566;2023-06-22T08:08:08;11.25;;;10.00;;
71162;SDS011;58858;50.948;6.566;2023-06-22T08:18:10;15.40;;;12.40;;
71162;SDS011;58858;50.948;6.566;2023-06-22T08:28:11;16.58;;;11.05;;
71162;SDS011;58858;50.948;6.566;2023-06-22T08:38:13;14.10;;;10.18;;
71162;SDS011;58858;50.948;6.566;2023-06-22T08:48:16;13.55;;;12.05;;
71162;SDS011;58858;50.948;6.566;2023-06-22T08:58:17;11.93;;;10.10;;
71162;SDS011;58858;50.948;6.566;2023-06-22T09:08:19;13.27;;;10.65;;
71162;SDS011;58858;50.948;6.566;2023-06-22T09:18:51;13.05;;;11.27;;
71162;SDS011;58858;50.948;6.566;2023-06-22T09:29:14;13.95;;;8.88;;
71162;SDS011;58858;50.948;6.566;2023-06-22T09:39:16;11.95;;;9.43;;
71162;SDS011;58858;50.948;6.566;2023-06-22T09:49:18;12.07;;;9.40;;
71162;SDS011;58858;50.948;6.566;2023-06-22T09:59:22;9.68;;;7.65;;
71162;SDS011;58858;50.948;6.566;2023-06-22T10:09:23;10.90;;;7.53;;
71162;SDS011;58858;50.948;6.566;2023-06-22T10:19:24;11.23;;;7.90;;
71162;SDS011;58858;50.948;6.566;2023-06-22T10:29:25;12.52;;;8.77;;
71162;SDS011;58858;50.948;6.566;2023-06-22T10:39:27;16.55;;;10.80;;
71162;SDS011;58858;50.948;6.566;2023-06-22T10:49:33;15.38;;;11.38;;
71162;SDS011;58858;50.948;6.566;2023-06-22T10:59:40;15.50;;;13.15;;
71162;SDS011;58858;50.948;6.566;2023-06-22T11:09:43;16.73;;;13.38;;
71162;SDS011;58858;50.948;6.566;2023-06-22T11:19:49;17.08;;;13.20;;
71162;SDS011;58858;50.948;6.566;2023-06-22T11:29:51;13.90;;;11.48;;
71162;SDS011;58858;50.948;6.566;2023-06-22T11:39:53;15.10;;;12.55;;
71162;SDS011;58858;50.948;6.566;2023-06-22T11:49:55;15.00;;;11.73;;
71162;SDS011;58858;50.948;6.566;2023-06-22T11:59:56;15.30;;;11.93;;
71162;SDS011;58858;50.948;6.566;2023-06-22T12:09:57;15.25;;;13.68;;
71162;SDS011;58858;50.948;6.566;2023-06-22T12:19:58;16.48;;;14.75;;
71162;SDS011;58858;50.948;6.566;2023-06-22T12:30:06;15.23;;;13.70;;
71162;SDS011;58858;50.948;6.566;2023-06-22T12:40:07;14.18;;;12.70;;
71162;SDS011;58858;50.948;6.566;2023-06-22T12:50:09;16.50;;;14.80;;
71162;SDS011;58858;50.948;6.566;2023-06-22T13:00:10;17.05;;;15.25;;
71162;SDS011;58858;50.948;6.566;2023-06-22T13:10:12;18.85;;;16.95;;
71162;SDS011;58858;50.948;6.566;2023-06-22T13:20:13;19.95;;;17.85;;
71162;SDS011;58858;50.948;6.566;2023-06-22T13:30:14;16.58;;;14.15;;
71162;SDS011;58858;50.948;6.566;2023-06-22T13:40:16;14.52;;;12.90;;
71162;SDS011;58858;50.948;6.566;2023-06-22T13:50:17;14.85;;;13.35;;
71162;SDS011;58858;50.948;6.566;2023-06-22T14:00:18;19.00;;;14.98;;
71162;SDS011;58858;50.948;6.566;2023-06-22T14:10:20;17.73;;;15.98;;
71162;SDS011;58858;50.948;6.566;2023-06-22T14:20:21;28.73;;;18.63;;
71162;SDS011;58858;50.948;6.566;2023-06-22T14:30:22;30.35;;;20.95;;
71162;SDS011;58858;50.948;6.566;2023-06-22T14:40:23;23.25;;;20.70;;
71162;SDS011;58858;50.948;6.566;2023-06-22T14:50:24;23.25;;;20.80;;
71162;SDS011;58858;50.948;6.566;2023-06-22T15:00:25;22.35;;;19.75;;
71162;SDS011;58858;50.948;6.566;2023-06-22T15:10:26;22.13;;;19.92;;
71162;SDS011;58858;50.948;6.566;2023-06-22T15:20:27;21.33;;;17.67;;
71162;SDS011;58858;50.948;6.566;2023-06-22T15:30:28;32.10;;;21.85;;
71162;SDS011;58858;50.948;6.566;2023-06-22T15:40:29;22.23;;;19.42;;
71162;SDS011;58858;50.948;6.566;2023-06-22T15:50:31;27.42;;;23.10;;
71162;SDS011;58858;50.948;6.566;2023-06-22T16:00:33;20.70;;;16.55;;
71162;SDS011;58858;50.948;6.566;2023-06-22T16:10:34;16.35;;;13.75;;
71162;SDS011;58858;50.948;6.566;2023-06-22T16:20:35;8.18;;;2.63;;
71162;SDS011;58858;50.948;6.566;2023-06-22T16:30:37;14.93;;;8.00;;
71162;SDS011;58858;50.948;6.566;2023-06-22T16:40:39;7.75;;;6.72;;
71162;SDS011;58858;50.948;6.566;2023-06-22T16:50:42;16.08;;;14.40;;
71162;SDS011;58858;50.948;6.566;2023-06-22T17:00:43;33.92;;;30.70;;
71162;SDS011;58858;50.948;6.566;2023-06-22T17:10:45;39.75;;;34.20;;
71162;SDS011;58858;50.948;6.566;2023-06-22T17:20:47;29.48;;;26.55;;
71162;SDS011;58858;50.948;6.566;2023-06-22T17:31:08;35.67;;;32.38;;
71162;SDS011;58858;50.948;6.566;2023-06-22T17:41:10;23.83;;;21.52;;
71162;SDS011;58858;50.948;6.566;2023-06-22T17:51:13;35.45;;;31.65;;
71162;SDS011;58858;50.948;6.566;2023-06-22T18:01:15;37.67;;;33.83;;
71162;SDS011;58858;50.948;6.566;2023-06-22T18:11:16;33.22;;;29.88;;
71162;SDS011;58858;50.948;6.566;2023-06-22T18:21:18;29.38;;;26.15;;
71162;SDS011;58858;50.948;6.566;2023-06-22T18:31:19;23.02;;;17.73;;
71162;SDS011;58858;50.948;6.566;2023-06-22T18:41:25;8.85;;;7.70;;
71162;SDS011;58858;50.948;6.566;2023-06-22T19:01:53;9.55;;;8.20;;
71162;SDS011;58858;50.948;6.566;2023-06-22T19:22:42;10.27;;;9.20;;
71162;SDS011;58858;50.948;6.566;2023-06-22T19:32:47;12.77;;;8.65;;
71162;SDS011;58858;50.948;6.566;2023-06-22T19:42:52;8.50;;;7.13;;
71162;SDS011;58858;50.948;6.566;2023-06-22T19:52:55;10.27;;;9.18;;
71162;SDS011;58858;50.948;6.566;2023-06-22T20:02:56;13.15;;;10.20;;
71162;SDS011;58858;50.948;6.566;2023-06-22T20:12:57;13.85;;;9.35;;
71162;SDS011;58858;50.948;6.566;2023-06-22T20:23:03;11.13;;;9.30;;
71162;SDS011;58858;50.948;6.566;2023-06-22T20:33:13;13.52;;;11.20;;
71162;SDS011;58858;50.948;6.566;2023-06-22T20:43:15;14.30;;;12.65;;
71162;SDS011;58858;50.948;6.566;2023-06-22T20:53:16;15.80;;;14.15;;
71162;SDS011;58858;50.948;6.566;2023-06-22T21:03:17;16.58;;;13.35;;
71162;SDS011;58858;50.948;6.566;2023-06-22T21:13:18;21.15;;;15.85;;
71162;SDS011;58858;50.948;6.566;2023-06-22T21:23:21;21.75;;;19.13;;
71162;SDS011;58858;50.948;6.566;2023-06-22T21:33:24;24.40;;;21.45;;
71162;SDS011;58858;50.948;6.566;2023-06-22T21:43:25;24.92;;;21.05;;
71162;SDS011;58858;50.948;6.566;2023-06-22T21:53:26;22.25;;;19.55;;
71162;SDS011;58858;50.948;6.566;2023-06-22T22:03:27;22.35;;;19.77;;
71162;SDS011;58858;50.948;6.566;2023-06-22T22:13:28;23.58;;;19.63;;
71162;SDS011;58858;50.948;6.566;2023-06-22T22:23:32;22.42;;;19.13;;
71162;SDS011;58858;50.948;6.566;2023-06-22T22:33:33;26.27;;;19.05;;
71162;SDS011;58858;50.948;6.566;2023-06-22T22:43:37;19.85;;;17.30;;
71162;SDS011;58858;50.948;6.566;2023-06-22T22:53:38;27.60;;;21.67;;
71162;SDS011;58858;50.948;6.566;2023-06-22T23:03:40;26.92;;;20.67;;
71162;SDS011;58858;50.948;6.566;2023-06-22T23:13:44;23.35;;;18.33;;
71162;SDS011;58858;50.948;6.566;2023-06-22T23:23:45;22.33;;;15.57;;
71162;SDS011;58858;50.948;6.566;2023-06-22T23:33:46;21.45;;;13.82;;
71162;SDS011;58858;50.948;6.566;2023-06-22T23:43:48;20.63;;;13.65;;
71162;SDS011;58858;50.948;6.566;2023-06-22T23:53:49;16.67;;;12.20;;
